Time;durP1;ratioP1;P1;durP2;ratioP2;P2;SDS_P1;SDS_P2;PMS_P1;PMS_P2;Temp;Humidity;BMP_temperature;BMP_pressure;BME280_temperature;BME280_humidity;BME280_pressure;Samples;Min_cycle;Max_cycle;Signal;HPM_P1;HPM_P2
2022/07/11 00:02:05;;;;;;;2.30;1.70;;;17.20;92.80;;;;;;5029809;28;20516;-66
2022/07/11 00:04:32;;;;;;;5.77;2.10;;;17.20;93.30;;;;;;5031774;28;20444;-66
2022/07/11 00:06:59;;;;;;;2.37;2.00;;;17.10;93.70;;;;;;5028615;28;20916;-65
2022/07/11 00:09:25;;;;;;;6.83;2.60;;;17.10;93.90;;;;;;5030536;28;20399;-64
2022/07/11 00:11:51;;;;;;;4.93;2.10;;;17.10;94.00;;;;;;5030533;28;20524;-65
2022/07/11 00:14:18;;;;;;;10.40;3.03;;;17.10;94.50;;;;;;5030864;28;20450;-65
2022/07/11 00:16:44;;;;;;;5.10;2.30;;;17.10;94.80;;;;;;5030127;28;20239;-65
2022/07/11 00:19:09;;;;;;;4.27;2.40;;;17.10;95.00;;;;;;5030040;28;20545;-65
2022/07/11 00:21:36;;;;;;;3.90;2.03;;;17.00;95.40;;;;;;5030266;28;20167;-65
2022/07/11 00:24:03;;;;;;;16.07;3.60;;;17.00;95.20;;;;;;5030494;28;20211;-65
2022/07/11 00:26:29;;;;;;;14.70;3.03;;;16.90;95.70;;;;;;5029899;28;20449;-65
2022/07/11 00:28:54;;;;;;;5.73;2.40;;;16.90;96.10;;;;;;5029606;28;20453;-65
2022/07/11 00:31:20;;;;;;;4.60;2.07;;;17.00;96.50;;;;;;5023382;28;20176;-65
2022/07/11 00:33:46;;;;;;;3.77;2.27;;;16.90;96.80;;;;;;5010679;28;20188;-65
2022/07/11 00:36:12;;;;;;;4.07;2.60;;;16.90;96.90;;;;;;5017728;28;20178;-65
2022/07/11 00:38:38;;;;;;;4.00;2.30;;;16.80;97.40;;;;;;5029322;28;20199;-65
2022/07/11 00:41:03;;;;;;;5.33;2.40;;;16.80;97.40;;;;;;5029814;28;20183;-66
2022/07/11 00:43:35;;;;;;;10.10;2.70;;;16.90;97.50;;;;;;5045368;28;20222;-66
2022/07/11 00:46:01;;;;;;;4.53;2.10;;;16.90;97.80;;;;;;5049870;28;20178;-64
2022/07/11 00:48:27;;;;;;;5.67;2.27;;;16.80;97.70;;;;;;5049696;28;20422;-65
2022/07/11 00:50:54;;;;;;;17.60;2.80;;;16.80;98.00;;;;;;5050760;28;20420;-66
2022/07/11 00:53:20;;;;;;;6.33;2.53;;;16.80;98.20;;;;;;5050829;28;20829;-65
2022/07/11 00:55:47;;;;;;;4.93;2.27;;;16.80;98.60;;;;;;5041548;28;20962;-65
2022/07/11 00:58:13;;;;;;;6.03;2.37;;;16.70;98.40;;;;;;5029847;28;20497;-67
2022/07/11 01:00:40;;;;;;;14.17;3.17;;;16.60;98.60;;;;;;5030313;28;20495;-65
2022/07/11 01:03:07;;;;;;;8.27;3.20;;;16.60;99.70;;;;;;5030353;28;20735;-66
2022/07/11 01:05:33;;;;;;;5.30;2.80;;;16.70;99.60;;;;;;5030103;28;20403;-66
2022/07/11 01:07:59;;;;;;;8.90;2.70;;;16.70;99.80;;;;;;5028768;28;20406;-65
2022/07/11 01:10:25;;;;;;;9.23;2.60;;;16.70;99.90;;;;;;5029590;28;20247;-65
2022/07/11 01:12:51;;;;;;;3.63;1.90;;;16.60;99.90;;;;;;5029019;28;20548;-65
2022/07/11 01:15:17;;;;;;;10.60;2.63;;;16.50;99.90;;;;;;5029572;28;20718;-64
2022/07/11 01:17:43;;;;;;;4.03;2.30;;;16.50;99.90;;;;;;5029018;28;20195;-65
2022/07/11 01:20:10;;;;;;;3.70;2.33;;;16.40;99.90;;;;;;5029431;28;20262;-65
2022/07/11 01:22:51;;;;;;;3.30;1.87;;;16.40;99.90;;;;;;5029156;28;20432;-65
2022/07/11 01:25:30;;;;;;;5.30;2.50;;;16.40;99.90;;;;;;5029664;28;20517;-65
2022/07/11 01:27:59;;;;;;;5.60;2.00;;;16.40;99.90;;;;;;5028659;28;20988;-64
2022/07/11 01:30:26;;;;;;;4.00;2.20;;;16.20;99.90;;;;;;5028037;28;20410;-65
2022/07/11 01:32:52;;;;;;;5.63;2.87;;;16.20;99.90;;;;;;5008727;28;20986;-65
2022/07/11 01:35:19;;;;;;;5.17;3.10;;;16.20;99.90;;;;;;5009669;28;20407;-64
2022/07/11 01:37:45;;;;;;;10.27;2.90;;;16.30;99.90;;;;;;5027995;28;20458;-65
2022/07/11 01:40:11;;;;;;;18.60;3.80;;;16.30;99.90;;;;;;5028934;28;20437;-65
2022/07/11 01:42:36;;;;;;;6.77;2.90;;;16.40;99.90;;;;;;5036450;28;20246;-65
2022/07/11 01:45:03;;;;;;;3.30;2.30;;;16.40;99.90;;;;;;5049262;28;20501;-65
2022/07/11 01:47:29;;;;;;;8.13;2.90;;;16.40;99.90;;;;;;5048970;28;20179;-64
2022/07/11 01:49:55;;;;;;;9.90;5.40;;;16.30;99.90;;;;;;5048926;28;20440;-65
2022/07/11 01:52:21;;;;;;;3.10;2.37;;;16.30;99.90;;;;;;5049000;28;20294;-65
2022/07/11 01:54:47;;;;;;;12.47;3.43;;;16.20;99.90;;;;;;5048480;28;20433;-65
2022/07/11 01:57:13;;;;;;;29.40;4.67;;;16.20;99.90;;;;;;5026375;28;20895;-66
2022/07/11 01:59:39;;;;;;;13.83;2.97;;;16.10;99.90;;;;;;5023673;28;20778;-65
2022/07/11 02:02:05;;;;;;;5.40;2.00;;;16.10;99.90;;;;;;5028533;28;20403;-65
2022/07/11 02:04:30;;;;;;;4.33;2.10;;;16.00;99.90;;;;;;5029354;28;20199;-65
2022/07/11 02:06:56;;;;;;;11.07;2.87;;;15.90;99.90;;;;;;5027522;28;20172;-65
2022/07/11 02:09:22;;;;;;;8.07;2.57;;;16.00;99.90;;;;;;5028425;28;20286;-65
2022/07/11 02:11:48;;;;;;;5.20;2.30;;;15.90;99.90;;;;;;5028111;28;20186;-65
2022/07/11 02:14:13;;;;;;;15.70;3.40;;;15.80;99.90;;;;;;5028923;28;20223;-65
2022/07/11 02:16:40;;;;;;;32.70;4.40;;;15.80;99.90;;;;;;5028547;28;20175;-65
2022/07/11 02:19:06;;;;;;;5.13;2.67;;;15.90;99.90;;;;;;5028155;28;20226;-65
2022/07/11 02:21:32;;;;;;;4.97;2.00;;;15.80;99.90;;;;;;5028249;28;20894;-65
2022/07/11 02:23:58;;;;;;;5.30;2.50;;;15.70;99.90;;;;;;5028472;28;20438;-65
2022/07/11 02:26:23;;;;;;;11.43;3.20;;;15.70;99.90;;;;;;5027920;28;20399;-65
2022/07/11 02:28:49;;;;;;;7.07;2.37;;;15.80;99.90;;;;;;5027770;28;20269;-65
2022/07/11 02:31:15;;;;;;;8.80;3.20;;;15.80;99.90;;;;;;5022303;28;20330;-65
2022/07/11 02:33:40;;;;;;;3.67;3.30;;;15.80;99.90;;;;;;5009269;28;20200;-64
2022/07/11 02:36:07;;;;;;;8.90;3.00;;;15.70;99.90;;;;;;5021002;28;20175;-64
2022/07/11 02:38:34;;;;;;;15.97;4.73;;;15.70;99.90;;;;;;5047035;28;20585;-65
2022/07/11 02:41:00;;;;;;;5.03;2.50;;;15.70;99.90;;;;;;5048109;28;20409;-65
2022/07/11 02:43:26;;;;;;;26.93;4.70;;;15.70;99.90;;;;;;5034018;28;20463;-64
2022/07/11 02:45:52;;;;;;;14.93;3.30;;;15.80;99.90;;;;;;5027993;28;20172;-64
2022/07/11 02:48:17;;;;;;;26.60;3.73;;;15.80;99.90;;;;;;5027678;28;20801;-63
2022/07/11 02:50:43;;;;;;;14.87;4.20;;;15.90;99.90;;;;;;5028094;28;20632;-64
2022/07/11 02:53:09;;;;;;;17.47;3.10;;;15.80;99.90;;;;;;5026364;28;20203;-65
2022/07/11 02:55:35;;;;;;;21.93;3.63;;;15.70;99.90;;;;;;5028326;28;20241;-65
2022/07/11 02:58:00;;;;;;;18.80;4.97;;;15.60;99.90;;;;;;5027341;28;20458;-64
2022/07/11 03:00:27;;;;;;;27.03;4.00;;;15.50;99.90;;;;;;5027741;28;20243;-63
2022/07/11 03:02:53;;;;;;;18.00;3.77;;;15.40;99.90;;;;;;5028438;28;20295;-65
2022/07/11 03:05:19;;;;;;;5.73;2.53;;;15.40;99.90;;;;;;5027799;28;20552;-63
2022/07/11 03:07:44;;;;;;;23.20;4.63;;;15.30;99.90;;;;;;5027498;28;20410;-65
2022/07/11 03:10:10;;;;;;;16.27;3.60;;;15.30;99.90;;;;;;5027305;28;20203;-63
2022/07/11 03:12:36;;;;;;;14.60;4.20;;;15.30;99.90;;;;;;5027728;28;20186;-63
2022/07/11 03:15:03;;;;;;;22.10;4.43;;;15.30;99.90;;;;;;5028058;28;20418;-64
2022/07/11 03:17:29;;;;;;;21.03;3.80;;;15.40;99.90;;;;;;5027828;28;20578;-65
2022/07/11 03:19:55;;;;;;;9.53;3.13;;;15.40;99.90;;;;;;5029477;28;20414;-65
2022/07/11 03:22:21;;;;;;;5.63;3.20;;;15.30;99.90;;;;;;5028300;28;20429;-64
2022/07/11 03:24:47;;;;;;;14.40;4.17;;;15.30;99.90;;;;;;5028266;28;20648;-65
2022/07/11 03:27:13;;;;;;;3.43;2.43;;;15.30;99.90;;;;;;5025649;28;20429;-65
2022/07/11 03:29:39;;;;;;;3.80;2.97;;;15.30;99.90;;;;;;5027966;28;20186;-65
2022/07/11 03:32:05;;;;;;;120.33;14.60;;;15.40;99.90;;;;;;5014618;28;20902;-64
2022/07/11 03:34:31;;;;;;;19.87;4.20;;;15.40;99.90;;;;;;5008241;28;20825;-65
2022/07/11 03:36:57;;;;;;;39.17;5.87;;;15.40;99.90;;;;;;5021225;28;20591;-63
2022/07/11 03:39:22;;;;;;;28.50;5.80;;;15.50;99.90;;;;;;5030958;28;20648;-65
2022/07/11 03:41:48;;;;;;;21.93;4.50;;;15.50;99.90;;;;;;5032298;28;20587;-64
2022/07/11 03:44:14;;;;;;;17.87;4.47;;;15.40;99.90;;;;;;5051465;28;20321;-65
2022/07/11 03:46:39;;;;;;;17.03;4.23;;;15.40;99.90;;;;;;5065870;22;20215;-64
2022/07/11 03:49:05;;;;;;;13.97;4.07;;;15.40;99.90;;;;;;5050978;28;20215;-68
2022/07/11 03:51:31;;;;;;;17.03;4.33;;;15.40;99.90;;;;;;5066873;28;20239;-65
2022/07/11 03:53:56;;;;;;;21.17;3.97;;;15.50;99.90;;;;;;5071435;28;20169;-66
2022/07/11 03:56:22;;;;;;;40.30;6.73;;;15.50;99.90;;;;;;5059163;28;20190;-67
2022/07/11 03:58:51;;;;;;;23.00;4.47;;;15.40;99.90;;;;;;5059756;28;20213;-68
2022/07/11 04:01:19;;;;;;;64.90;8.80;;;15.50;99.90;;;;;;5065603;28;20171;-68
2022/07/11 04:03:45;;;;;;;28.63;4.77;;;15.50;99.90;;;;;;5059742;28;20410;-66
2022/07/11 04:06:12;;;;;;;52.90;7.00;;;15.50;99.90;;;;;;5071208;28;20987;-67
2022/07/11 04:08:38;;;;;;;17.63;4.43;;;15.50;99.90;;;;;;5068255;28;20777;-70
2022/07/11 04:11:04;;;;;;;9.37;3.60;;;15.50;99.90;;;;;;5070444;28;20408;-68
2022/07/11 04:13:30;;;;;;;6.43;2.60;;;15.50;99.90;;;;;;5071070;28;20768;-68
2022/07/11 04:15:56;;;;;;;8.40;3.27;;;15.50;99.90;;;;;;5070069;28;20416;-68
2022/07/11 04:18:22;;;;;;;8.40;3.27;;;15.60;99.90;;;;;;5070952;28;21070;-68
2022/07/11 04:20:49;;;;;;;5.57;3.40;;;15.70;99.90;;;;;;5073552;28;20550;-68
2022/07/11 04:23:18;;;;;;;9.00;3.40;;;15.70;99.90;;;;;;5075680;28;21143;-68
2022/07/11 04:25:44;;;;;;;11.40;3.93;;;15.70;99.90;;;;;;5076315;28;20408;-67
2022/07/11 04:28:09;;;;;;;46.30;7.77;;;15.80;99.90;;;;;;5073383;28;20935;-67
2022/07/11 04:30:35;;;;;;;9.30;3.57;;;15.80;99.90;;;;;;5074795;28;20171;-68
2022/07/11 04:33:01;;;;;;;19.90;5.40;;;15.80;99.90;;;;;;5056099;28;20171;-68
2022/07/11 04:35:27;;;;;;;26.73;5.47;;;15.90;99.90;;;;;;5056327;28;20171;-68
2022/07/11 04:37:54;;;;;;;21.57;4.60;;;16.00;99.90;;;;;;5050246;28;20739;-68
2022/07/11 04:40:23;;;;;;;26.23;5.03;;;16.00;99.90;;;;;;5050101;28;20497;-68
2022/07/11 04:42:49;;;;;;;38.23;6.47;;;16.00;99.90;;;;;;5059274;28;20435;-67
2022/07/11 04:45:15;;;;;;;33.23;5.70;;;16.00;99.90;;;;;;5054190;28;20429;-68
2022/07/11 04:47:41;;;;;;;28.07;5.77;;;16.00;99.90;;;;;;5067573;28;20457;-67
2022/07/11 04:50:08;;;;;;;38.23;6.60;;;16.10;99.90;;;;;;5069880;28;20268;-68
2022/07/11 04:52:34;;;;;;;22.50;4.83;;;16.20;99.90;;;;;;5069824;28;20428;-69
2022/07/11 04:54:59;;;;;;;17.37;4.70;;;16.30;99.90;;;;;;5067929;28;20424;-68
2022/07/11 04:57:26;;;;;;;18.83;4.27;;;16.30;99.90;;;;;;5047837;28;20236;-69
2022/07/11 04:59:52;;;;;;;12.37;3.63;;;16.20;99.90;;;;;;5048757;28;20174;-67
2022/07/11 05:02:17;;;;;;;15.33;3.43;;;16.20;99.90;;;;;;5049013;28;20418;-68
2022/07/11 05:04:44;;;;;;;24.30;4.33;;;16.20;99.90;;;;;;5050311;28;20650;-69
2022/07/11 05:07:10;;;;;;;34.87;6.43;;;16.20;99.90;;;;;;5044583;28;20179;-67
2022/07/11 05:09:35;;;;;;;61.90;12.30;;;16.10;99.90;;;;;;5052340;28;20478;-67
2022/07/11 05:12:01;;;;;;;19.87;4.67;;;16.10;99.90;;;;;;5068735;28;20163;-68
2022/07/11 05:14:27;;;;;;;9.97;3.53;;;16.30;99.90;;;;;;5069713;28;20200;-69
2022/07/11 05:16:52;;;;;;;10.70;3.40;;;16.40;99.90;;;;;;5053204;28;20186;-68
2022/07/11 05:19:18;;;;;;;5.37;3.40;;;16.40;99.90;;;;;;5035485;28;20258;-68
2022/07/11 05:21:44;;;;;;;17.63;4.90;;;16.50;99.90;;;;;;5044652;28;20660;-70
2022/07/11 05:24:09;;;;;;;161.70;17.97;;;16.50;99.90;;;;;;5047712;28;20245;-68
2022/07/11 05:26:36;;;;;;;111.33;11.00;;;16.80;99.90;;;;;;5044829;28;20191;-70
2022/07/11 05:29:01;;;;;;;209.93;20.80;;;17.10;99.90;;;;;;5046009;28;20530;-69
2022/07/11 05:31:27;;;;;;;66.33;9.53;;;17.40;99.90;;;;;;5038699;28;20423;-71
2022/07/11 05:33:53;;;;;;;34.50;6.53;;;17.40;99.90;;;;;;5041914;28;20248;-68
2022/07/11 05:36:19;;;;;;;30.20;7.40;;;17.50;99.90;;;;;;5038027;28;20206;-69
2022/07/11 05:38:45;;;;;;;45.60;7.30;;;17.60;99.90;;;;;;5034013;28;20482;-69
2022/07/11 05:41:11;;;;;;;30.90;6.60;;;17.50;99.90;;;;;;5035742;28;20172;-69
2022/07/11 05:43:36;;;;;;;67.40;9.67;;;17.60;99.90;;;;;;5043537;28;20255;-69
2022/07/11 05:46:05;;;;;;;37.73;8.47;;;17.70;99.90;;;;;;5038931;28;20171;-69
2022/07/11 05:48:31;;;;;;;22.50;5.70;;;17.70;99.90;;;;;;5043057;28;20373;-68
2022/07/11 05:50:57;;;;;;;10.57;4.27;;;17.80;99.90;;;;;;5031083;28;20568;-70
2022/07/11 05:53:22;;;;;;;26.23;6.97;;;17.60;99.90;;;;;;5027090;28;20168;-67
2022/07/11 05:55:48;;;;;;;27.80;6.13;;;17.60;99.90;;;;;;5035913;28;20279;-69
2022/07/11 05:58:14;;;;;;;12.27;4.93;;;17.70;99.90;;;;;;5041973;28;20199;-70
2022/07/11 06:00:40;;;;;;;14.23;4.80;;;18.00;99.90;;;;;;5039081;28;20214;-70
2022/07/11 06:03:05;;;;;;;15.77;5.10;;;18.00;99.90;;;;;;5038965;28;20190;-70
2022/07/11 06:05:31;;;;;;;22.37;4.77;;;18.00;99.90;;;;;;5033824;28;20194;-70
2022/07/11 06:10:41;;;;;;;9.23;4.97;;;17.70;99.90;;;;;;5033527;28;20809;-70
2022/07/11 06:13:07;;;;;;;7.20;4.20;;;17.50;99.90;;;;;;5035147;28;20430;-70
2022/07/11 06:15:32;;;;;;;19.93;5.30;;;17.40;99.90;;;;;;5034322;28;20278;-71
2022/07/11 06:17:58;;;;;;;11.67;4.93;;;17.30;99.90;;;;;;5033052;28;20295;-70
2022/07/11 06:20:25;;;;;;;29.07;6.73;;;17.40;99.90;;;;;;5034632;28;20198;-70
2022/07/11 06:22:53;;;;;;;47.73;7.67;;;17.50;99.90;;;;;;5035719;28;20421;-70
2022/07/11 06:25:18;;;;;;;32.37;7.73;;;17.70;99.90;;;;;;5034476;28;20582;-71
2022/07/11 06:27:44;;;;;;;29.00;7.50;;;17.70;99.90;;;;;;5034228;28;20434;-70
2022/07/11 06:30:10;;;;;;;21.20;5.83;;;17.80;99.90;;;;;;5033041;28;20257;-69
2022/07/11 06:32:36;;;;;;;19.03;5.43;;;18.10;99.90;;;;;;5033763;28;20286;-71
2022/07/11 06:35:03;;;;;;;22.87;5.87;;;18.10;99.90;;;;;;5033058;28;20454;-70
2022/07/11 06:37:28;;;;;;;41.57;7.00;;;18.10;99.90;;;;;;5035417;28;20305;-69
2022/07/11 06:39:54;;;;;;;18.30;5.00;;;18.40;99.90;;;;;;5033256;28;20434;-69
2022/07/11 06:42:20;;;;;;;25.17;5.77;;;18.40;99.90;;;;;;5043844;28;20179;-69
2022/07/11 06:44:45;;;;;;;36.50;8.40;;;18.30;99.90;;;;;;5036686;28;20179;-71
2022/07/11 06:47:11;;;;;;;21.73;5.43;;;18.30;99.90;;;;;;5042887;28;20289;-69
2022/07/11 06:49:37;;;;;;;10.67;4.73;;;18.30;99.90;;;;;;5031992;28;20275;-69
2022/07/11 06:52:03;;;;;;;10.10;5.33;;;18.30;99.90;;;;;;5032013;28;20495;-67
2022/07/11 06:54:29;;;;;;;36.30;7.73;;;18.20;99.90;;;;;;5043170;28;20457;-69
2022/07/11 06:56:55;;;;;;;15.63;5.80;;;18.20;99.90;;;;;;5039906;28;21272;-69
2022/07/11 06:59:20;;;;;;;16.17;5.57;;;18.20;99.90;;;;;;5045580;28;20202;-69
2022/07/11 07:01:46;;;;;;;15.73;5.60;;;18.10;99.90;;;;;;5039414;28;20183;-68
2022/07/11 07:04:12;;;;;;;14.70;5.90;;;18.10;99.90;;;;;;5038988;28;20184;-67
2022/07/11 07:06:38;;;;;;;13.07;5.00;;;17.90;99.90;;;;;;5036637;28;20206;-67
2022/07/11 07:09:03;;;;;;;16.83;5.80;;;18.10;99.90;;;;;;5040176;28;20588;-68
2022/07/11 07:11:29;;;;;;;10.70;5.20;;;18.00;99.90;;;;;;5045307;28;20202;-69
2022/07/11 07:13:55;;;;;;;15.10;5.13;;;18.00;99.90;;;;;;5045201;28;20283;-67
2022/07/11 07:16:20;;;;;;;28.93;5.77;;;18.20;99.90;;;;;;5035963;28;20235;-68
2022/07/11 07:18:48;;;;;;;5.80;4.30;;;18.30;99.90;;;;;;5036475;28;20218;-67
2022/07/11 07:21:14;;;;;;;7.87;4.93;;;18.40;99.90;;;;;;5044501;28;20228;-66
2022/07/11 07:23:40;;;;;;;14.53;5.87;;;18.20;99.90;;;;;;5048606;28;21927;-69
2022/07/11 07:26:06;;;;;;;18.33;6.40;;;18.40;99.90;;;;;;5045182;28;20417;-67
2022/07/11 07:28:32;;;;;;;10.77;5.20;;;18.60;99.90;;;;;;5051146;28;20599;-68
2022/07/11 07:30:58;;;;;;;10.53;5.00;;;18.70;99.90;;;;;;5048755;28;20823;-68
2022/07/11 07:33:24;;;;;;;26.30;6.53;;;18.80;99.90;;;;;;5044139;28;20682;-67
2022/07/11 07:35:49;;;;;;;31.93;8.10;;;19.00;99.90;;;;;;5039557;28;20425;-67
2022/07/11 07:38:15;;;;;;;101.60;14.83;;;19.20;99.90;;;;;;5056614;28;20208;-67
2022/07/11 07:40:41;;;;;;;10.67;4.70;;;19.30;99.90;;;;;;5061570;28;20175;-67
2022/07/11 07:43:06;;;;;;;13.40;5.40;;;19.40;99.90;;;;;;5059538;28;20199;-68
2022/07/11 07:45:32;;;;;;;13.90;7.93;;;19.30;99.90;;;;;;5038312;28;20237;-66
2022/07/11 07:47:58;;;;;;;16.43;4.67;;;18.90;99.90;;;;;;5034137;28;20571;-67
2022/07/11 07:50:24;;;;;;;14.93;6.07;;;19.20;99.90;;;;;;5035419;28;20178;-66
2022/07/11 07:52:50;;;;;;;15.93;4.90;;;19.50;99.90;;;;;;5033746;28;20250;-67
2022/07/11 07:55:16;;;;;;;12.50;4.93;;;19.40;99.90;;;;;;5045897;28;20618;-67
2022/07/11 07:57:42;;;;;;;9.00;4.17;;;19.60;99.90;;;;;;5033619;28;20218;-67
2022/07/11 08:02:52;;;;;;;12.83;4.80;;;19.90;99.90;;;;;;5048448;28;20182;-68
2022/07/11 08:05:18;;;;;;;14.60;4.20;;;20.20;99.90;;;;;;5039049;28;20437;-67
2022/07/11 08:07:45;;;;;;;17.27;4.17;;;20.30;99.90;;;;;;5039990;28;20847;-67
2022/07/11 08:10:11;;;;;;;59.13;9.33;;;20.50;99.90;;;;;;5046347;28;20432;-67
2022/07/11 08:12:37;;;;;;;66.50;8.27;;;20.80;99.90;;;;;;5034444;28;21052;-67
2022/07/11 08:15:03;;;;;;;64.73;8.30;;;21.10;99.90;;;;;;5033244;28;20414;-67
2022/07/11 08:17:29;;;;;;;26.47;4.27;;;21.40;99.90;;;;;;5041684;28;20201;-67
2022/07/11 08:19:55;;;;;;;10.83;4.07;;;21.50;99.90;;;;;;5047610;28;20421;-68
2022/07/11 08:22:20;;;;;;;8.10;3.37;;;21.40;99.90;;;;;;5042216;28;20506;-67
2022/07/11 08:24:46;;;;;;;20.30;5.10;;;21.20;99.90;;;;;;5047336;28;20174;-68
2022/07/11 08:27:12;;;;;;;7.43;3.23;;;21.50;99.90;;;;;;5046436;28;20195;-68
2022/07/11 08:29:38;;;;;;;29.37;5.13;;;21.80;99.90;;;;;;5033609;28;20195;-69
2022/07/11 08:32:04;;;;;;;6.90;2.60;;;22.00;99.90;;;;;;5034413;28;20190;-68
2022/07/11 08:34:29;;;;;;;11.87;3.20;;;21.70;99.90;;;;;;5034165;28;20644;-67
2022/07/11 08:36:55;;;;;;;4.00;1.90;;;21.80;99.90;;;;;;5040938;28;20583;-68
2022/07/11 08:39:21;;;;;;;4.13;1.77;;;21.50;99.90;;;;;;5045896;28;20205;-69
2022/07/11 08:41:46;;;;;;;40.60;5.03;;;21.20;99.90;;;;;;5045277;28;20321;-69
2022/07/11 08:44:13;;;;;;;34.67;4.40;;;21.10;99.90;;;;;;5047634;28;20195;-68
2022/07/11 08:46:43;;;;;;;17.43;3.30;;;21.40;99.90;;;;;;5043658;28;20301;-68
2022/07/11 08:49:11;;;;;;;11.57;2.70;;;21.30;99.90;;;;;;5044617;28;20417;-68
2022/07/11 08:51:37;;;;;;;40.00;5.27;;;20.80;99.90;;;;;;5044967;28;20430;-68
2022/07/11 08:54:04;;;;;;;5.43;2.53;;;20.90;99.90;;;;;;5048064;28;20417;-69
2022/07/11 08:56:31;;;;;;;7.20;2.47;;;20.90;99.90;;;;;;5038353;28;20480;-69
2022/07/11 08:59:00;;;;;;;4.77;2.17;;;20.60;99.90;;;;;;5035806;28;20541;-69
2022/07/11 09:01:29;;;;;;;14.23;2.53;;;20.90;99.90;;;;;;5035174;28;20525;-67
2022/07/11 09:03:56;;;;;;;3.03;1.73;;;21.20;99.90;;;;;;5034519;28;20500;-69
2022/07/11 09:06:21;;;;;;;2.43;1.77;;;21.10;99.90;;;;;;5035190;28;20475;-69
2022/07/11 09:08:47;;;;;;;23.70;4.30;;;21.00;99.90;;;;;;5032680;28;20423;-70
2022/07/11 09:11:13;;;;;;;70.93;8.50;;;20.90;99.90;;;;;;5032792;28;20243;-69
2022/07/11 09:13:39;;;;;;;6.53;2.10;;;21.00;99.90;;;;;;5033973;28;20245;-68
2022/07/11 09:16:06;;;;;;;1.93;1.47;;;20.70;99.90;;;;;;5032465;28;20258;-68
2022/07/11 09:18:40;;;;;;;10.13;1.67;;;20.60;99.90;;;;;;5031298;28;20203;-68
2022/07/11 09:26:40;;;;;;;5.77;1.90;;;20.00;99.90;;;;;;5040834;28;20725;-67
2022/07/11 09:29:14;;;;;;;1.97;1.10;;;20.20;99.90;;;;;;5049342;28;20507;-69
2022/07/11 09:31:42;;;;;;;12.97;1.77;;;20.30;99.90;;;;;;5042177;28;20432;-67
2022/07/11 09:34:16;;;;;;;36.70;4.53;;;20.50;99.90;;;;;;5038715;28;20428;-69
2022/07/11 09:36:55;;;;;;;10.47;2.60;;;20.60;99.90;;;;;;5046014;28;20513;-67
2022/07/11 09:39:26;;;;;;;48.00;5.40;;;20.80;99.90;;;;;;5044946;28;20921;-67
2022/07/11 09:41:53;;;;;;;13.90;2.53;;;20.90;99.90;;;;;;5045197;28;20457;-68
2022/07/11 09:44:26;;;;;;;10.53;2.50;;;21.00;99.90;;;;;;5052888;28;20475;-68
2022/07/11 09:46:53;;;;;;;9.03;3.40;;;21.20;99.90;;;;;;5039431;28;20533;-68
2022/07/11 09:49:36;;;;;;;5.90;1.83;;;21.60;99.90;;;;;;5035333;28;20414;-70
2022/07/11 09:52:16;;;;;;;15.33;3.17;;;21.60;99.90;;;;;;5028438;28;20414;-68
2022/07/11 09:54:53;;;;;;;7.80;2.70;;;21.90;99.90;;;;;;5035958;28;20421;-68
2022/07/11 09:57:19;;;;;;;6.60;2.23;;;21.90;99.90;;;;;;5030723;28;20430;-68
2022/07/11 09:59:54;;;;;;;5.57;1.50;;;22.30;99.90;;;;;;5037388;28;20409;-69
2022/07/11 10:02:20;;;;;;;7.40;2.80;;;22.50;99.90;;;;;;5030724;28;20617;-69
2022/07/11 10:04:47;;;;;;;4.23;2.00;;;22.70;99.90;;;;;;5038310;28;21048;-68
2022/07/11 10:07:13;;;;;;;16.13;2.33;;;22.90;99.90;;;;;;5045942;28;20465;-70
2022/07/11 10:09:38;;;;;;;6.53;1.50;;;22.90;99.90;;;;;;5040502;28;20519;-69
2022/07/11 10:12:04;;;;;;;3.20;1.30;;;23.10;99.90;;;;;;5044942;28;20274;-70
2022/07/11 10:14:31;;;;;;;2.70;1.53;;;23.10;99.10;;;;;;5046637;28;20272;-70
2022/07/11 10:17:06;;;;;;;4.90;1.50;;;23.10;98.10;;;;;;5044012;28;20988;-67
2022/07/11 10:19:41;;;;;;;11.13;2.37;;;23.20;97.20;;;;;;5046745;28;20854;-69
2022/07/11 10:22:17;;;;;;;18.67;3.07;;;23.50;95.90;;;;;;5043017;28;21060;-67
2022/07/11 10:24:56;;;;;;;16.37;2.80;;;23.30;95.40;;;;;;5033212;28;21079;-72
2022/07/11 10:27:44;;;;;;;21.43;3.53;;;23.20;93.40;;;;;;5031039;28;20995;-69
2022/07/11 10:30:10;;;;;;;5.87;2.40;;;23.10;92.30;;;;;;5045449;28;20428;-69
2022/07/11 10:32:57;;;;;;;37.30;4.10;;;23.00;90.60;;;;;;5045715;28;20426;-68
2022/07/11 10:35:23;;;;;;;8.53;2.47;;;23.10;90.20;;;;;;5045211;28;20557;-68
2022/07/11 10:37:52;;;;;;;14.33;2.30;;;23.20;90.40;;;;;;5044486;28;20460;-67
2022/07/11 10:40:57;;;;;;;7.40;1.57;;;23.20;90.90;;;;;;5046753;28;20195;-68
2022/07/11 10:43:22;;;;;;;6.73;2.03;;;23.10;88.70;;;;;;4965252;28;20428;-69
2022/07/11 10:46:01;;;;;;;4.03;1.20;;;23.20;88.40;;;;;;5018538;28;20987;-66
2022/07/11 10:48:30;;;;;;;1.70;0.93;;;23.10;84.40;;;;;;5049542;28;20202;-68
2022/07/11 10:51:20;;;;;;;4.07;1.00;;;22.40;80.60;;;;;;5037422;28;20872;-68
2022/07/11 10:53:49;;;;;;;5.80;1.37;;;22.10;79.70;;;;;;5063556;28;20429;-68
2022/07/11 10:56:33;;;;;;;13.93;2.20;;;22.10;79.70;;;;;;5035807;28;20513;-68
2022/07/11 10:59:11;;;;;;;4.47;1.50;;;22.30;81.70;;;;;;5037189;28;20507;-68
2022/07/11 11:02:12;;;;;;;6.77;1.07;;;22.70;82.30;;;;;;5048567;28;20420;-68
2022/07/11 11:04:45;;;;;;;7.30;1.30;;;22.80;79.60;;;;;;5039195;28;20441;-67
2022/07/11 11:07:40;;;;;;;2.30;1.60;;;22.80;81.60;;;;;;5036854;28;20457;-68
2022/07/11 11:10:29;;;;;;;2.23;1.37;;;23.00;81.10;;;;;;5034694;28;20410;-67
2022/07/11 11:13:09;;;;;;;3.00;1.30;;;22.80;79.50;;;;;;5025163;28;20941;-70
2022/07/11 11:15:45;;;;;;;4.20;1.40;;;22.80;78.90;;;;;;5048568;28;20445;-67
2022/07/11 11:18:25;;;;;;;2.13;1.37;;;22.90;79.10;;;;;;5047368;28;20451;-68
2022/07/11 11:21:02;;;;;;;2.00;1.43;;;22.30;78.50;;;;;;5038186;28;20879;-68
2022/07/11 11:23:31;;;;;;;2.00;1.50;;;22.10;77.70;;;;;;5044636;28;20491;-68
2022/07/11 11:26:19;;;;;;;2.43;1.30;;;21.80;77.00;;;;;;5034695;28;20426;-68
2022/07/11 11:29:06;;;;;;;8.90;1.70;;;21.60;78.80;;;;;;5047677;28;20428;-68
2022/07/11 11:31:35;;;;;;;11.43;1.63;;;21.80;80.60;;;;;;5040651;28;20740;-68
2022/07/11 11:34:02;;;;;;;13.13;2.17;;;21.80;80.90;;;;;;5039187;28;20441;-68
2022/07/11 11:36:28;;;;;;;17.20;2.03;;;22.00;82.30;;;;;;5034319;28;20465;-68
2022/07/11 11:38:55;;;;;;;3.47;1.57;;;22.10;82.10;;;;;;5038349;28;20480;-69
2022/07/11 11:41:31;;;;;;;8.37;1.90;;;22.30;84.00;;;;;;5048172;28;20724;-70
2022/07/11 11:44:01;;;;;;;6.57;1.87;;;22.60;84.60;;;;;;5047806;28;20410;-69
2022/07/11 11:46:28;;;;;;;5.47;1.83;;;22.70;84.50;;;;;;5040481;28;20452;-68
2022/07/11 11:48:58;;;;;;;2.80;1.37;;;22.80;84.80;;;;;;5047945;28;20910;-69
2022/07/11 11:51:27;;;;;;;8.13;2.00;;;22.60;82.00;;;;;;5049340;28;20921;-69
2022/07/11 11:53:54;;;;;;;17.97;3.47;;;22.60;82.00;;;;;;5047263;28;20418;-70
2022/07/11 11:56:28;;;;;;;10.60;2.30;;;22.80;83.20;;;;;;5038854;28;20425;-69
2022/07/11 11:59:04;;;;;;;5.20;2.33;;;23.00;83.90;;;;;;5038941;28;20894;-69
2022/07/11 12:01:32;;;;;;;3.17;1.80;;;22.90;83.40;;;;;;5034544;28;20420;-68
2022/07/11 12:04:03;;;;;;;1.70;1.40;;;23.00;83.20;;;;;;5042953;28;20417;-68
2022/07/11 12:06:33;;;;;;;2.80;2.03;;;22.90;83.90;;;;;;5047432;28;20425;-69
2022/07/11 12:09:09;;;;;;;1.60;1.20;;;22.90;85.20;;;;;;5036139;28;20723;-69
2022/07/11 12:11:36;;;;;;;7.53;2.47;;;22.70;83.40;;;;;;5034377;28;20499;-69
2022/07/11 12:14:09;;;;;;;10.97;2.47;;;22.50;83.90;;;;;;5041203;28;20940;-68
2022/07/11 12:16:46;;;;;;;2.53;1.87;;;22.50;85.50;;;;;;5034781;28;20438;-70
2022/07/11 12:19:15;;;;;;;3.77;1.60;;;22.40;85.20;;;;;;5039664;28;20885;-69
2022/07/11 12:21:42;;;;;;;2.73;1.77;;;22.40;87.20;;;;;;5041639;28;20429;-70
2022/07/11 12:24:11;;;;;;;3.93;2.00;;;22.60;86.80;;;;;;5045626;28;20751;-69
2022/07/11 12:26:40;;;;;;;4.00;1.60;;;22.70;88.50;;;;;;5053277;28;20436;-70
2022/07/11 12:29:05;;;;;;;10.23;2.00;;;22.60;87.40;;;;;;5045077;28;20427;-70
2022/07/11 12:31:46;;;;;;;2.50;1.37;;;22.70;86.20;;;;;;5039755;28;20920;-69
2022/07/11 12:34:13;;;;;;;1.70;1.30;;;22.70;86.40;;;;;;5052355;28;20240;-71
2022/07/11 12:36:39;;;;;;;9.63;2.20;;;22.90;87.30;;;;;;5036555;28;20469;-71
2022/07/11 12:39:05;;;;;;;4.30;1.20;;;22.70;85.70;;;;;;5043707;28;20531;-71
2022/07/11 12:41:32;;;;;;;2.20;1.60;;;22.30;85.50;;;;;;5068505;28;20455;-71
2022/07/11 12:46:42;;;;;;;3.77;1.40;;;21.80;83.70;;;;;;5060508;28;20475;-71
2022/07/11 12:49:10;;;;;;;8.30;1.50;;;21.80;85.40;;;;;;5052978;28;20980;-72
2022/07/11 12:51:41;;;;;;;2.30;1.40;;;22.00;88.10;;;;;;5052802;28;20166;-69
2022/07/11 12:54:15;;;;;;;10.70;1.80;;;22.20;88.50;;;;;;5063641;28;20477;-71
2022/07/11 12:56:54;;;;;;;2.70;1.50;;;22.50;90.30;;;;;;5061940;28;20501;-69
2022/07/11 12:59:22;;;;;;;1.83;1.27;;;22.60;90.10;;;;;;5061457;28;20487;-70